KJYM

Details ICAO KJYM
Name HILLSDALE MUNI
Region United States
Timezone America/Detroit (UTC-4.0)
Plans Departing 0
Arriving 4
Stats Elevation 1,182 ft / 360 m (AMSL)
Location 41.921261° -84.585763°
Runways 1
Magnetic Variation 6.326° W
Sunrise 2018-05-27 10:09:45 UTC / 2018-05-27 06:09:45 Local
Sunset 2018-05-28 01:04:11 UTC / 2018-05-27 21:04:11 Local
Advertisement - Login to hide

Runways

ID Width Length Bearing (true) Bearing (mag) Surface Threshold Offset Overrun Length
10 75 ft / 23 m 3,991 ft / 1,216 m 93.55° 99.88° Asphalt 0 ft / 0 m 0 ft / 0 m
28 75 ft / 23 m 3,991 ft / 1,216 m 273.56° 279.89° Asphalt 0 ft / 0 m 0 ft / 0 m

Map

Weather


0- 5 10 15 20 25 30 35+ Temperature / ° C

Clouds and Precipitation
Forecast for 2018-05-28 00:00 UTC. Updated 27 minutes ago

Ground ~20,000 ft ~40,000 ft Winds

METAR

KJYM 272335Z AUTO 00000KT 10SM CLR 30/15 A2990 RMK AO2

TAF

Not found

Frequencies

Recorded 121.02 MHz AWOS 3
Approach 134.35 MHz TOLEDO APP/DEP
Unicom 122.80 MHz CTAF/UNICOM
Warning: Do not use this data for real-world aviation or navigation. No guarantee of current accuracy is given.